Time,TemperatureF,DewpointF,PressureIn,WindDirection,WindDirectionDegrees,WindSpeedMPH,WindSpeedGustMPH,Humidity,HourlyPrecipIn,Conditions,Clouds,dailyrainin,SoftwareType,DateUTC
2015-05-29 00:02:00,44.0,43.0,-100.00,East,100,0.0,2.0,97,-99.99,,,-99.99,,2015-05-29 05:02:00,
2015-05-29 00:11:00,44.0,43.0,-100.00,ESE,115,0.0,2.0,98,-99.99,,,-99.99,,2015-05-29 05:11:00,
2015-05-29 00:21:00,44.0,43.0,-100.00,South,180,0.0,0.0,98,-99.99,,,-99.99,,2015-05-29 05:21:00,
2015-05-29 00:42:00,43.0,43.0,-100.00,WNW,300,0.0,1.0,99,-99.99,,,-99.99,,2015-05-29 05:42:00,
2015-05-29 00:51:00,43.0,43.0,-100.00,ESE,115,0.0,0.0,99,-99.99,,,-99.99,,2015-05-29 05:51:00,
2015-05-29 01:12:00,43.0,43.0,-100.00,NE,40,0.0,1.0,99,-99.99,,,-99.99,,2015-05-29 06:12:00,
2015-05-29 01:22:00,43.0,43.0,-100.00,SE,135,0.0,1.0,99,-99.99,,,-99.99,,2015-05-29 06:22:00,
2015-05-29 01:31:00,43.0,43.0,-100.00,South,170,0.0,0.0,99,-99.99,,,-99.99,,2015-05-29 06:31:00,
2015-05-29 02:11:00,43.0,43.0,-100.00,NE,50,1.0,2.0,99,-99.99,,,-99.99,,2015-05-29 07:11:00,
2015-05-29 06:42:00,43.0,43.0,-100.00,East,100,0.0,2.0,99,-99.99,,,-99.99,,2015-05-29 11:42:00,
2015-05-29 06:52:00,43.0,43.0,-100.00,South,175,1.0,1.0,99,-99.99,,,-99.99,,2015-05-29 11:52:00,
2015-05-29 07:02:00,43.0,43.0,-100.00,SE,135,0.0,2.0,99,-99.99,,,-99.99,,2015-05-29 12:02:00,
2015-05-29 07:51:00,45.0,45.0,-100.00,ESE,115,1.0,2.0,99,-99.99,,,-99.99,,2015-05-29 12:51:00,
2015-05-29 08:02:00,45.0,45.0,-100.00,East,85,1.0,2.0,99,-99.99,,,-99.99,,2015-05-29 13:02:00,
2015-05-29 08:12:00,45.0,45.0,-100.00,NE,50,1.0,2.0,99,-99.99,,,-99.99,,2015-05-29 13:12:00,
2015-05-29 08:21:00,46.0,45.0,-100.00,WSW,255,1.0,2.0,98,-99.99,,,-99.99,,2015-05-29 13:21:00,
2015-05-29 08:31:00,46.0,45.0,-100.00,SSE,165,1.0,1.0,97,-99.99,,,-99.99,,2015-05-29 13:31:00,
2015-05-29 08:42:00,45.0,45.0,-100.00,SSW,200,0.0,1.0,95,-99.99,,,-99.99,,2015-05-29 13:42:00,
2015-05-29 08:51:00,45.0,45.0,-100.00,West,265,1.0,1.0,94,-99.99,,,-99.99,,2015-05-29 13:51:00,
2015-05-29 09:01:00,45.0,45.0,-100.00,WSW,245,1.0,1.0,94,-99.99,,,-99.99,,2015-05-29 14:01:00,
2015-05-29 09:11:00,46.0,45.0,-100.00,WSW,255,1.0,2.0,94,-99.99,,,-99.99,,2015-05-29 14:11:00,
2015-05-29 09:21:00,47.0,45.0,-100.00,SSW,210,2.0,3.0,92,-99.99,,,-99.99,,2015-05-29 14:21:00,
2015-05-29 09:31:00,46.0,45.0,-100.00,SSW,210,0.0,2.0,91,-99.99,,,-99.99,,2015-05-29 14:31:00,
2015-05-29 09:42:00,46.0,43.0,-100.00,West,260,1.0,2.0,90,-99.99,,,-99.99,,2015-05-29 14:42:00,
2015-05-29 09:51:00,45.0,43.0,-100.00,SW,230,1.0,3.0,91,-99.99,,,-99.99,,2015-05-29 14:51:00,
2015-05-29 10:01:00,45.0,43.0,-100.00,SW,215,0.0,1.0,91,-99.99,,,-99.99,,2015-05-29 15:01:00,
2015-05-29 10:11:00,45.0,43.0,-100.00,South,190,0.0,1.0,92,-99.99,,,-99.99,,2015-05-29 15:11:00,
2015-05-29 10:21:00,46.0,45.0,-100.00,SSE,150,0.0,1.0,92,-99.99,,,-99.99,,2015-05-29 15:21:00,
2015-05-29 10:32:00,48.0,45.0,-100.00,SSE,165,1.0,2.0,89,-99.99,,,-99.99,,2015-05-29 15:32:00,
2015-05-29 10:42:00,48.0,43.0,-100.00,South,170,0.0,2.0,84,-99.99,,,-99.99,,2015-05-29 15:42:00,
2015-05-29 10:52:00,49.0,43.0,-100.00,South,190,1.0,2.0,80,-99.99,,,-99.99,,2015-05-29 15:52:00,
2015-05-29 11:02:00,49.0,43.0,-100.00,SSW,200,1.0,3.0,78,-99.99,,,-99.99,,2015-05-29 16:02:00,
2015-05-29 11:11:00,50.0,43.0,-100.00,ESE,120,1.0,2.0,74,-99.99,,,-99.99,,2015-05-29 16:11:00,
2015-05-29 12:12:00,47.0,43.0,-100.00,SW,225,2.0,4.0,81,-99.99,,,-99.99,,2015-05-29 17:12:00,
2015-05-29 12:32:00,48.0,43.0,-100.00,SSW,205,1.0,5.0,82,-99.99,,,-99.99,,2015-05-29 17:32:00,
2015-05-29 12:42:00,48.0,43.0,-100.00,SSW,200,1.0,2.0,80,-99.99,,,-99.99,,2015-05-29 17:42:00,
2015-05-29 12:52:00,49.0,43.0,-100.00,South,180,0.0,1.0,78,-99.99,,,-99.99,,2015-05-29 17:52:00,
2015-05-29 13:32:00,55.0,46.0,-100.00,WSW,245,2.0,9.0,73,-99.99,,,-99.99,,2015-05-29 18:32:00,
2015-05-29 13:42:00,65.0,57.0,-100.00,WNW,295,3.0,9.0,74,-99.99,,,-99.99,,2015-05-29 18:42:00,
2015-05-29 14:02:00,67.0,55.0,-100.00,West,265,4.0,10.0,64,-99.99,,,-99.99,,2015-05-29 19:02:00,
2015-05-29 14:11:00,66.0,55.0,-100.00,WNW,290,4.0,11.0,67,-99.99,,,-99.99,,2015-05-29 19:11:00,
2015-05-29 14:22:00,66.0,55.0,-100.00,NW,315,1.0,9.0,68,-99.99,,,-99.99,,2015-05-29 19:22:00,
2015-05-29 14:32:00,66.0,55.0,-100.00,North,10,2.0,7.0,68,-99.99,,,-99.99,,2015-05-29 19:32:00,
2015-05-29 14:43:00,65.0,55.0,-100.00,West,280,3.0,9.0,69,-99.99,,,-99.99,,2015-05-29 19:43:00,
2015-05-29 15:02:00,66.0,55.0,-100.00,NNE,30,1.0,4.0,69,-99.99,,,-99.99,,2015-05-29 20:02:00,
2015-05-29 15:11:00,65.0,55.0,-100.00,North,0,1.0,7.0,70,-99.99,,,-99.99,,2015-05-29 20:11:00,
2015-05-29 15:21:00,65.0,55.0,-100.00,West,270,4.0,9.0,72,-99.99,,,-99.99,,2015-05-29 20:21:00,
2015-05-29 15:31:00,64.0,55.0,-100.00,WNW,295,4.0,9.0,73,-99.99,,,-99.99,,2015-05-29 20:31:00,
2015-05-29 15:43:00,64.0,55.0,-100.00,WNW,295,4.0,9.0,72,-99.99,,,-99.99,,2015-05-29 20:43:00,
2015-05-29 15:51:00,64.0,55.0,-100.00,NNW,330,3.0,11.0,71,-99.99,,,-99.99,,2015-05-29 20:51:00,
2015-05-29 16:02:00,65.0,54.0,-100.00,WSW,255,3.0,13.0,68,-99.99,,,-99.99,,2015-05-29 21:02:00,
2015-05-29 16:11:00,64.0,54.0,-100.00,NW,310,1.0,11.0,67,-99.99,,,-99.99,,2015-05-29 21:11:00,
2015-05-29 16:21:00,65.0,54.0,-100.00,East,100,1.0,7.0,66,-99.99,,,-99.99,,2015-05-29 21:21:00,
2015-05-29 16:31:00,64.0,54.0,-100.00,WSW,245,6.0,11.0,67,-99.99,,,-99.99,,2015-05-29 21:31:00,
2015-05-29 16:41:00,63.0,54.0,-100.00,West,275,2.0,9.0,68,-99.99,,,-99.99,,2015-05-29 21:41:00,
2015-05-29 16:51:00,63.0,54.0,-100.00,WNW,290,3.0,11.0,68,-99.99,,,-99.99,,2015-05-29 21:51:00,
2015-05-29 17:02:00,63.0,54.0,-100.00,WSW,240,3.0,7.0,67,-99.99,,,-99.99,,2015-05-29 22:02:00,
2015-05-29 17:11:00,63.0,52.0,-100.00,WNW,285,3.0,14.0,67,-99.99,,,-99.99,,2015-05-29 22:11:00,
2015-05-29 17:21:00,63.0,52.0,-100.00,WSW,245,3.0,11.0,67,-99.99,,,-99.99,,2015-05-29 22:21:00,
2015-05-29 17:31:00,62.0,52.0,-100.00,WNW,285,7.0,12.0,68,-99.99,,,-99.99,,2015-05-29 22:31:00,
2015-05-29 17:41:00,61.0,52.0,-100.00,West,280,5.0,10.0,70,-99.99,,,-99.99,,2015-05-29 22:41:00,
2015-05-29 17:52:00,61.0,52.0,-100.00,NW,305,3.0,8.0,70,-99.99,,,-99.99,,2015-05-29 22:52:00,
2015-05-29 18:03:00,60.0,50.0,-100.00,NNW,335,2.0,12.0,71,-99.99,,,-99.99,,2015-05-29 23:03:00,
2015-05-29 18:11:00,59.0,52.0,-100.00,WSW,245,3.0,10.0,73,-99.99,,,-99.99,,2015-05-29 23:11:00,
2015-05-29 18:21:00,59.0,50.0,-100.00,SSE,160,2.0,8.0,73,-99.99,,,-99.99,,2015-05-29 23:21:00,
2015-05-29 18:31:00,58.0,50.0,-100.00,ESE,120,1.0,4.0,74,-99.99,,,-99.99,,2015-05-29 23:31:00,
2015-05-29 18:42:00,58.0,50.0,-100.00,WNW,295,3.0,11.0,73,-99.99,,,-99.99,,2015-05-29 23:42:00,
2015-05-29 18:51:00,58.0,50.0,-100.00,WNW,285,1.0,10.0,73,-99.99,,,-99.99,,2015-05-29 23:51:00,
2015-05-29 19:01:00,57.0,48.0,-100.00,West,270,6.0,10.0,73,-99.99,,,-99.99,,2015-05-30 00:01:00,
2015-05-29 19:11:00,56.0,48.0,-100.00,North,5,4.0,13.0,73,-99.99,,,-99.99,,2015-05-30 00:11:00,
2015-05-29 19:21:00,56.0,48.0,-100.00,NW,310,2.0,7.0,72,-99.99,,,-99.99,,2015-05-30 00:21:00,
2015-05-29 19:31:00,56.0,48.0,-100.00,West,265,1.0,14.0,72,-99.99,,,-99.99,,2015-05-30 00:31:00,
2015-05-29 19:41:00,56.0,46.0,-100.00,WNW,285,4.0,12.0,72,-99.99,,,-99.99,,2015-05-30 00:41:00,
2015-05-29 19:51:00,55.0,46.0,-100.00,North,0,4.0,9.0,70,-99.99,,,-99.99,,2015-05-30 00:51:00,
2015-05-29 20:02:00,55.0,46.0,-100.00,NNE,25,2.0,10.0,70,-99.99,,,-99.99,,2015-05-30 01:02:00,
2015-05-29 20:11:00,55.0,46.0,-100.00,NE,40,1.0,6.0,70,-99.99,,,-99.99,,2015-05-30 01:11:00,
2015-05-29 20:21:00,55.0,46.0,-100.00,North,5,1.0,11.0,71,-99.99,,,-99.99,,2015-05-30 01:21:00,
2015-05-29 20:31:00,54.0,45.0,-100.00,SW,225,2.0,9.0,71,-99.99,,,-99.99,,2015-05-30 01:31:00,
2015-05-29 20:41:00,54.0,45.0,-100.00,WNW,295,3.0,9.0,71,-99.99,,,-99.99,,2015-05-30 01:41:00,
2015-05-29 20:51:00,54.0,45.0,-100.00,NNE,20,0.0,6.0,70,-99.99,,,-99.99,,2015-05-30 01:51:00,